sensor_id;sensor_type;location;lat;lon;timestamp;P1;durP1;ratioP1;P2;durP2;ratioP2
10550;SDS011;5324;50.684;3.862;2023-02-28T00:00:01;7.80;;;5.03;;
10550;SDS011;5324;50.684;3.862;2023-02-28T00:02:34;6.70;;;4.63;;
10550;SDS011;5324;50.684;3.862;2023-02-28T00:05:00;4.53;;;4.13;;
10550;SDS011;5324;50.684;3.862;2023-02-28T00:07:26;7.33;;;4.50;;
10550;SDS011;5324;50.684;3.862;2023-02-28T00:09:53;5.20;;;4.10;;
10550;SDS011;5324;50.684;3.862;2023-02-28T00:12:19;5.80;;;5.00;;
10550;SDS011;5324;50.684;3.862;2023-02-28T00:14:45;6.07;;;3.90;;
10550;SDS011;5324;50.684;3.862;2023-02-28T00:17:11;6.07;;;4.40;;
10550;SDS011;5324;50.684;3.862;2023-02-28T00:19:37;8.73;;;4.77;;
10550;SDS011;5324;50.684;3.862;2023-02-28T00:22:03;6.00;;;4.47;;
10550;SDS011;5324;50.684;3.862;2023-02-28T00:24:29;4.57;;;3.80;;
10550;SDS011;5324;50.684;3.862;2023-02-28T00:26:55;6.63;;;4.80;;
10550;SDS011;5324;50.684;3.862;2023-02-28T00:29:21;7.73;;;4.97;;
10550;SDS011;5324;50.684;3.862;2023-02-28T00:31:47;4.13;;;3.70;;
10550;SDS011;5324;50.684;3.862;2023-02-28T00:34:13;6.50;;;4.60;;
10550;SDS011;5324;50.684;3.862;2023-02-28T00:36:39;4.90;;;4.40;;
10550;SDS011;5324;50.684;3.862;2023-02-28T00:39:08;7.70;;;5.10;;
10550;SDS011;5324;50.684;3.862;2023-02-28T00:41:34;5.57;;;4.33;;
10550;SDS011;5324;50.684;3.862;2023-02-28T00:44:00;4.83;;;4.20;;
10550;SDS011;5324;50.684;3.862;2023-02-28T00:46:26;6.67;;;4.20;;
10550;SDS011;5324;50.684;3.862;2023-02-28T00:48:52;4.80;;;4.30;;
10550;SDS011;5324;50.684;3.862;2023-02-28T00:51:18;5.43;;;4.43;;
10550;SDS011;5324;50.684;3.862;2023-02-28T00:53:44;5.67;;;4.60;;
10550;SDS011;5324;50.684;3.862;2023-02-28T00:56:10;6.70;;;4.60;;
10550;SDS011;5324;50.684;3.862;2023-02-28T00:58:36;6.37;;;5.00;;
10550;SDS011;5324;50.684;3.862;2023-02-28T01:01:02;7.37;;;4.47;;
10550;SDS011;5324;50.684;3.862;2023-02-28T01:03:28;5.97;;;4.33;;
10550;SDS011;5324;50.684;3.862;2023-02-28T01:05:54;4.93;;;4.43;;
10550;SDS011;5324;50.684;3.862;2023-02-28T01:08:20;9.20;;;4.70;;
10550;SDS011;5324;50.684;3.862;2023-02-28T01:10:46;6.47;;;4.73;;
10550;SDS011;5324;50.684;3.862;2023-02-28T01:13:13;8.50;;;5.00;;
10550;SDS011;5324;50.684;3.862;2023-02-28T01:15:46;5.33;;;4.83;;
10550;SDS011;5324;50.684;3.862;2023-02-28T01:18:14;12.27;;;4.37;;
10550;SDS011;5324;50.684;3.862;2023-02-28T01:20:40;7.17;;;4.83;;
10550;SDS011;5324;50.684;3.862;2023-02-28T01:23:07;5.10;;;4.50;;
10550;SDS011;5324;50.684;3.862;2023-02-28T01:25:36;8.00;;;5.17;;
10550;SDS011;5324;50.684;3.862;2023-02-28T01:28:02;7.43;;;4.93;;
10550;SDS011;5324;50.684;3.862;2023-02-28T01:30:28;5.63;;;5.03;;
10550;SDS011;5324;50.684;3.862;2023-02-28T01:32:54;6.10;;;4.77;;
10550;SDS011;5324;50.684;3.862;2023-02-28T01:35:20;8.73;;;4.67;;
10550;SDS011;5324;50.684;3.862;2023-02-28T01:37:46;7.27;;;4.83;;
10550;SDS011;5324;50.684;3.862;2023-02-28T01:40:12;6.07;;;4.93;;
10550;SDS011;5324;50.684;3.862;2023-02-28T01:42:38;6.23;;;4.53;;
10550;SDS011;5324;50.684;3.862;2023-02-28T01:47:38;11.20;;;4.80;;
10550;SDS011;5324;50.684;3.862;2023-02-28T01:50:07;6.07;;;4.40;;
10550;SDS011;5324;50.684;3.862;2023-02-28T01:52:35;4.93;;;4.47;;
10550;SDS011;5324;50.684;3.862;2023-02-28T01:55:02;6.47;;;4.80;;
10550;SDS011;5324;50.684;3.862;2023-02-28T01:57:34;6.73;;;5.10;;
10550;SDS011;5324;50.684;3.862;2023-02-28T02:00:24;7.50;;;5.03;;
10550;SDS011;5324;50.684;3.862;2023-02-28T02:02:50;6.83;;;4.97;;
10550;SDS011;5324;50.684;3.862;2023-02-28T02:05:17;5.37;;;4.37;;
10550;SDS011;5324;50.684;3.862;2023-02-28T02:07:44;7.50;;;4.77;;
10550;SDS011;5324;50.684;3.862;2023-02-28T02:10:18;5.90;;;4.47;;
10550;SDS011;5324;50.684;3.862;2023-02-28T02:36:05;4.70;;;4.30;;
10550;SDS011;5324;50.684;3.862;2023-02-28T02:38:31;6.87;;;4.33;;
10550;SDS011;5324;50.684;3.862;2023-02-28T02:41:08;5.87;;;4.90;;
10550;SDS011;5324;50.684;3.862;2023-02-28T02:43:37;5.53;;;4.73;;
10550;SDS011;5324;50.684;3.862;2023-02-28T02:46:13;5.73;;;4.60;;
10550;SDS011;5324;50.684;3.862;2023-02-28T02:48:40;5.03;;;4.60;;
10550;SDS011;5324;50.684;3.862;2023-02-28T02:51:09;7.47;;;4.13;;
10550;SDS011;5324;50.684;3.862;2023-02-28T02:54:00;9.97;;;5.17;;
10550;SDS011;5324;50.684;3.862;2023-02-28T02:56:24;6.80;;;4.80;;
10550;SDS011;5324;50.684;3.862;2023-02-28T02:58:51;9.83;;;4.93;;
10550;SDS011;5324;50.684;3.862;2023-02-28T03:01:19;6.20;;;4.57;;
10550;SDS011;5324;50.684;3.862;2023-02-28T03:03:54;8.93;;;4.67;;
10550;SDS011;5324;50.684;3.862;2023-02-28T03:06:20;9.20;;;5.80;;
10550;SDS011;5324;50.684;3.862;2023-02-28T03:08:46;6.63;;;4.93;;
10550;SDS011;5324;50.684;3.862;2023-02-28T03:11:13;5.87;;;5.03;;
10550;SDS011;5324;50.684;3.862;2023-02-28T03:13:52;6.23;;;5.23;;
10550;SDS011;5324;50.684;3.862;2023-02-28T03:18:53;6.77;;;4.33;;
10550;SDS011;5324;50.684;3.862;2023-02-28T03:21:33;9.53;;;5.23;;
10550;SDS011;5324;50.684;3.862;2023-02-28T03:24:06;6.17;;;5.37;;
10550;SDS011;5324;50.684;3.862;2023-02-28T03:26:34;7.87;;;5.20;;
10550;SDS011;5324;50.684;3.862;2023-02-28T03:29:03;6.53;;;5.70;;
10550;SDS011;5324;50.684;3.862;2023-02-28T03:31:33;6.13;;;4.67;;
10550;SDS011;5324;50.684;3.862;2023-02-28T03:34:17;9.03;;;5.67;;
10550;SDS011;5324;50.684;3.862;2023-02-28T03:36:46;6.17;;;5.13;;
10550;SDS011;5324;50.684;3.862;2023-02-28T03:39:14;5.93;;;5.27;;
10550;SDS011;5324;50.684;3.862;2023-02-28T03:41:42;7.47;;;5.07;;
10550;SDS011;5324;50.684;3.862;2023-02-28T03:44:13;8.17;;;5.73;;
10550;SDS011;5324;50.684;3.862;2023-02-28T03:46:47;5.63;;;4.80;;
10550;SDS011;5324;50.684;3.862;2023-02-28T03:49:28;6.20;;;4.90;;
10550;SDS011;5324;50.684;3.862;2023-02-28T03:51:56;7.10;;;5.27;;
10550;SDS011;5324;50.684;3.862;2023-02-28T03:54:29;7.03;;;4.93;;
10550;SDS011;5324;50.684;3.862;2023-02-28T03:57:06;7.33;;;5.67;;
10550;SDS011;5324;50.684;3.862;2023-02-28T03:59:37;6.80;;;5.47;;
10550;SDS011;5324;50.684;3.862;2023-02-28T04:02:05;9.13;;;5.47;;
10550;SDS011;5324;50.684;3.862;2023-02-28T04:04:31;7.73;;;5.87;;
10550;SDS011;5324;50.684;3.862;2023-02-28T04:07:01;8.57;;;6.40;;
10550;SDS011;5324;50.684;3.862;2023-02-28T04:09:28;8.53;;;5.87;;
10550;SDS011;5324;50.684;3.862;2023-02-28T04:11:54;8.33;;;5.90;;
10550;SDS011;5324;50.684;3.862;2023-02-28T04:14:21;9.83;;;5.80;;
10550;SDS011;5324;50.684;3.862;2023-02-28T04:16:47;11.77;;;5.47;;
10550;SDS011;5324;50.684;3.862;2023-02-28T04:19:14;8.57;;;6.00;;
10550;SDS011;5324;50.684;3.862;2023-02-28T04:21:41;10.37;;;5.63;;
10550;SDS011;5324;50.684;3.862;2023-02-28T04:24:08;8.30;;;6.07;;
10550;SDS011;5324;50.684;3.862;2023-02-28T04:26:38;10.53;;;6.37;;
10550;SDS011;5324;50.684;3.862;2023-02-28T04:29:05;7.93;;;5.17;;
10550;SDS011;5324;50.684;3.862;2023-02-28T04:31:31;6.83;;;5.40;;
10550;SDS011;5324;50.684;3.862;2023-02-28T04:33:57;6.43;;;5.70;;
10550;SDS011;5324;50.684;3.862;2023-02-28T04:36:23;9.33;;;6.23;;
10550;SDS011;5324;50.684;3.862;2023-02-28T04:38:49;6.70;;;5.27;;
10550;SDS011;5324;50.684;3.862;2023-02-28T04:41:15;11.00;;;6.17;;
10550;SDS011;5324;50.684;3.862;2023-02-28T04:43:42;6.73;;;5.97;;
10550;SDS011;5324;50.684;3.862;2023-02-28T04:46:08;7.97;;;5.60;;
10550;SDS011;5324;50.684;3.862;2023-02-28T04:48:36;7.97;;;6.30;;
10550;SDS011;5324;50.684;3.862;2023-02-28T04:51:03;13.20;;;6.20;;
10550;SDS011;5324;50.684;3.862;2023-02-28T04:53:29;8.67;;;6.73;;
10550;SDS011;5324;50.684;3.862;2023-02-28T04:55:56;12.13;;;6.80;;
10550;SDS011;5324;50.684;3.862;2023-02-28T04:58:22;7.90;;;5.93;;
10550;SDS011;5324;50.684;3.862;2023-02-28T05:00:48;10.20;;;6.10;;
10550;SDS011;5324;50.684;3.862;2023-02-28T05:03:15;6.43;;;5.77;;
10550;SDS011;5324;50.684;3.862;2023-02-28T05:05:41;9.47;;;6.17;;
10550;SDS011;5324;50.684;3.862;2023-02-28T05:08:06;8.90;;;6.33;;
10550;SDS011;5324;50.684;3.862;2023-02-28T05:10:34;8.87;;;6.57;;
10550;SDS011;5324;50.684;3.862;2023-02-28T05:13:00;7.80;;;6.17;;
10550;SDS011;5324;50.684;3.862;2023-02-28T05:15:26;7.17;;;6.03;;
10550;SDS011;5324;50.684;3.862;2023-02-28T05:17:52;11.97;;;6.67;;
10550;SDS011;5324;50.684;3.862;2023-02-28T05:20:18;9.23;;;6.60;;
10550;SDS011;5324;50.684;3.862;2023-02-28T05:22:45;9.77;;;7.30;;
10550;SDS011;5324;50.684;3.862;2023-02-28T05:25:12;9.77;;;6.97;;
10550;SDS011;5324;50.684;3.862;2023-02-28T05:27:39;8.03;;;6.50;;
10550;SDS011;5324;50.684;3.862;2023-02-28T05:30:06;7.67;;;5.80;;
10550;SDS011;5324;50.684;3.862;2023-02-28T05:32:35;11.10;;;6.53;;
10550;SDS011;5324;50.684;3.862;2023-02-28T05:35:01;8.87;;;6.43;;
10550;SDS011;5324;50.684;3.862;2023-02-28T05:37:27;9.37;;;6.40;;
10550;SDS011;5324;50.684;3.862;2023-02-28T05:39:53;11.53;;;6.70;;
10550;SDS011;5324;50.684;3.862;2023-02-28T05:42:19;8.63;;;6.20;;
10550;SDS011;5324;50.684;3.862;2023-02-28T05:44:45;7.80;;;6.37;;
10550;SDS011;5324;50.684;3.862;2023-02-28T05:47:11;9.57;;;6.60;;
10550;SDS011;5324;50.684;3.862;2023-02-28T05:49:40;8.53;;;6.23;;
10550;SDS011;5324;50.684;3.862;2023-02-28T05:52:06;9.47;;;6.70;;
10550;SDS011;5324;50.684;3.862;2023-02-28T05:54:32;9.50;;;6.83;;
10550;SDS011;5324;50.684;3.862;2023-02-28T05:56:58;9.77;;;6.80;;
10550;SDS011;5324;50.684;3.862;2023-02-28T05:59:24;10.50;;;7.17;;
10550;SDS011;5324;50.684;3.862;2023-02-28T06:01:50;8.50;;;6.70;;
10550;SDS011;5324;50.684;3.862;2023-02-28T06:04:18;8.93;;;6.90;;
10550;SDS011;5324;50.684;3.862;2023-02-28T06:06:45;8.40;;;6.20;;
10550;SDS011;5324;50.684;3.862;2023-02-28T06:09:11;9.00;;;6.97;;
10550;SDS011;5324;50.684;3.862;2023-02-28T06:11:38;7.57;;;6.77;;
10550;SDS011;5324;50.684;3.862;2023-02-28T06:14:04;10.90;;;6.47;;
10550;SDS011;5324;50.684;3.862;2023-02-28T06:16:31;8.67;;;6.97;;
10550;SDS011;5324;50.684;3.862;2023-02-28T06:18:57;7.90;;;6.27;;
10550;SDS011;5324;50.684;3.862;2023-02-28T06:21:24;11.43;;;6.80;;
10550;SDS011;5324;50.684;3.862;2023-02-28T06:23:50;9.00;;;7.10;;
10550;SDS011;5324;50.684;3.862;2023-02-28T06:26:16;8.73;;;6.57;;
10550;SDS011;5324;50.684;3.862;2023-02-28T06:28:42;8.67;;;6.13;;
10550;SDS011;5324;50.684;3.862;2023-02-28T06:31:09;12.63;;;6.87;;
10550;SDS011;5324;50.684;3.862;2023-02-28T06:33:36;7.90;;;6.53;;
10550;SDS011;5324;50.684;3.862;2023-02-28T06:36:02;10.90;;;6.87;;
10550;SDS011;5324;50.684;3.862;2023-02-28T06:38:28;10.13;;;6.60;;
10550;SDS011;5324;50.684;3.862;2023-02-28T06:40:55;9.27;;;7.37;;
10550;SDS011;5324;50.684;3.862;2023-02-28T06:43:23;11.13;;;7.13;;
10550;SDS011;5324;50.684;3.862;2023-02-28T06:45:49;11.37;;;7.37;;
10550;SDS011;5324;50.684;3.862;2023-02-28T06:48:16;10.30;;;6.70;;
10550;SDS011;5324;50.684;3.862;2023-02-28T06:50:42;10.10;;;7.33;;
10550;SDS011;5324;50.684;3.862;2023-02-28T06:53:08;8.83;;;7.03;;
10550;SDS011;5324;50.684;3.862;2023-02-28T06:55:34;9.97;;;6.90;;
10550;SDS011;5324;50.684;3.862;2023-02-28T06:58:03;9.60;;;7.37;;
10550;SDS011;5324;50.684;3.862;2023-02-28T07:00:38;25.23;;;15.93;;
10550;SDS011;5324;50.684;3.862;2023-02-28T07:03:04;8.67;;;6.77;;
10550;SDS011;5324;50.684;3.862;2023-02-28T07:05:30;9.13;;;6.30;;
10550;SDS011;5324;50.684;3.862;2023-02-28T07:07:56;8.60;;;6.10;;
10550;SDS011;5324;50.684;3.862;2023-02-28T07:10:22;12.30;;;7.13;;
10550;SDS011;5324;50.684;3.862;2023-02-28T07:12:48;8.63;;;7.20;;
10550;SDS011;5324;50.684;3.862;2023-02-28T07:15:14;8.17;;;6.33;;
10550;SDS011;5324;50.684;3.862;2023-02-28T07:17:40;8.60;;;7.23;;
10550;SDS011;5324;50.684;3.862;2023-02-28T07:20:06;9.53;;;7.33;;
10550;SDS011;5324;50.684;3.862;2023-02-28T07:22:32;8.27;;;6.80;;
10550;SDS011;5324;50.684;3.862;2023-02-28T07:24:58;9.47;;;6.87;;
10550;SDS011;5324;50.684;3.862;2023-02-28T07:27:24;11.83;;;7.30;;
10550;SDS011;5324;50.684;3.862;2023-02-28T07:29:50;9.07;;;7.23;;
10550;SDS011;5324;50.684;3.862;2023-02-28T07:32:17;8.93;;;6.77;;
10550;SDS011;5324;50.684;3.862;2023-02-28T07:34:43;10.43;;;7.10;;
10550;SDS011;5324;50.684;3.862;2023-02-28T07:37:09;11.37;;;7.40;;
10550;SDS011;5324;50.684;3.862;2023-02-28T07:39:35;11.47;;;7.93;;
10550;SDS011;5324;50.684;3.862;2023-02-28T07:42:04;7.87;;;6.70;;
10550;SDS011;5324;50.684;3.862;2023-02-28T07:44:31;10.27;;;6.60;;
10550;SDS011;5324;50.684;3.862;2023-02-28T07:46:57;9.67;;;6.53;;
10550;SDS011;5324;50.684;3.862;2023-02-28T07:49:23;11.40;;;7.23;;
10550;SDS011;5324;50.684;3.862;2023-02-28T07:51:49;7.77;;;6.67;;
10550;SDS011;5324;50.684;3.862;2023-02-28T07:54:15;10.33;;;7.00;;
10550;SDS011;5324;50.684;3.862;2023-02-28T07:56:41;10.40;;;6.07;;
10550;SDS011;5324;50.684;3.862;2023-02-28T07:59:07;9.13;;;6.10;;
10550;SDS011;5324;50.684;3.862;2023-02-28T08:01:34;9.03;;;6.50;;
10550;SDS011;5324;50.684;3.862;2023-02-28T08:04:00;8.70;;;5.77;;
10550;SDS011;5324;50.684;3.862;2023-02-28T08:06:26;9.20;;;6.27;;
10550;SDS011;5324;50.684;3.862;2023-02-28T08:08:52;9.70;;;6.77;;
10550;SDS011;5324;50.684;3.862;2023-02-28T08:11:18;8.33;;;6.20;;
10550;SDS011;5324;50.684;3.862;2023-02-28T08:13:44;7.77;;;5.63;;
10550;SDS011;5324;50.684;3.862;2023-02-28T08:16:12;7.33;;;5.60;;
10550;SDS011;5324;50.684;3.862;2023-02-28T08:18:42;6.93;;;5.53;;
10550;SDS011;5324;50.684;3.862;2023-02-28T08:21:08;8.90;;;6.30;;
10550;SDS011;5324;50.684;3.862;2023-02-28T08:23:35;10.23;;;6.90;;
10550;SDS011;5324;50.684;3.862;2023-02-28T08:26:01;8.50;;;6.43;;
10550;SDS011;5324;50.684;3.862;2023-02-28T08:28:27;7.47;;;5.80;;
10550;SDS011;5324;50.684;3.862;2023-02-28T08:30:53;8.80;;;6.70;;
10550;SDS011;5324;50.684;3.862;2023-02-28T08:33:20;9.13;;;6.03;;
10550;SDS011;5324;50.684;3.862;2023-02-28T08:35:46;6.80;;;5.57;;
10550;SDS011;5324;50.684;3.862;2023-02-28T08:38:12;8.50;;;6.70;;
10550;SDS011;5324;50.684;3.862;2023-02-28T08:40:38;9.33;;;5.57;;
10550;SDS011;5324;50.684;3.862;2023-02-28T08:43:04;7.33;;;6.03;;
10550;SDS011;5324;50.684;3.862;2023-02-28T08:45:30;8.63;;;6.20;;
10550;SDS011;5324;50.684;3.862;2023-02-28T08:47:56;5.77;;;5.17;;
10550;SDS011;5324;50.684;3.862;2023-02-28T08:50:22;6.43;;;5.27;;
10550;SDS011;5324;50.684;3.862;2023-02-28T08:52:48;8.77;;;5.60;;
10550;SDS011;5324;50.684;3.862;2023-02-28T08:55:14;6.80;;;5.30;;
10550;SDS011;5324;50.684;3.862;2023-02-28T08:57:40;6.20;;;5.30;;
10550;SDS011;5324;50.684;3.862;2023-02-28T09:00:07;7.67;;;5.70;;
10550;SDS011;5324;50.684;3.862;2023-02-28T09:02:33;6.90;;;4.57;;
10550;SDS011;5324;50.684;3.862;2023-02-28T09:04:59;5.07;;;4.07;;
10550;SDS011;5324;50.684;3.862;2023-02-28T09:07:25;5.40;;;4.33;;
10550;SDS011;5324;50.684;3.862;2023-02-28T09:09:51;5.17;;;4.30;;
10550;SDS011;5324;50.684;3.862;2023-02-28T09:12:31;4.53;;;3.73;;
10550;SDS011;5324;50.684;3.862;2023-02-28T09:14:57;6.10;;;4.20;;
10550;SDS011;5324;50.684;3.862;2023-02-28T09:17:23;4.30;;;3.70;;
10550;SDS011;5324;50.684;3.862;2023-02-28T09:19:49;5.83;;;3.33;;
10550;SDS011;5324;50.684;3.862;2023-02-28T09:22:15;4.67;;;4.13;;
10550;SDS011;5324;50.684;3.862;2023-02-28T09:24:42;4.50;;;3.70;;
10550;SDS011;5324;50.684;3.862;2023-02-28T09:27:09;3.90;;;3.50;;
10550;SDS011;5324;50.684;3.862;2023-02-28T09:29:35;5.27;;;4.53;;
10550;SDS011;5324;50.684;3.862;2023-02-28T09:32:02;4.00;;;3.60;;
10550;SDS011;5324;50.684;3.862;2023-02-28T09:34:30;10.83;;;4.23;;
10550;SDS011;5324;50.684;3.862;2023-02-28T09:36:57;4.67;;;4.23;;
10550;SDS011;5324;50.684;3.862;2023-02-28T09:39:23;5.83;;;3.57;;
10550;SDS011;5324;50.684;3.862;2023-02-28T09:41:51;6.07;;;3.43;;
10550;SDS011;5324;50.684;3.862;2023-02-28T09:44:36;3.10;;;2.80;;
10550;SDS011;5324;50.684;3.862;2023-02-28T09:47:08;3.30;;;2.50;;
10550;SDS011;5324;50.684;3.862;2023-02-28T09:49:37;4.33;;;2.60;;
10550;SDS011;5324;50.684;3.862;2023-02-28T09:52:08;4.10;;;2.83;;
10550;SDS011;5324;50.684;3.862;2023-02-28T09:54:35;3.03;;;2.73;;
10550;SDS011;5324;50.684;3.862;2023-02-28T10:05:18;3.47;;;2.90;;
10550;SDS011;5324;50.684;3.862;2023-02-28T10:10:32;3.07;;;2.77;;
10550;SDS011;5324;50.684;3.862;2023-02-28T10:12:56;3.60;;;3.03;;
10550;SDS011;5324;50.684;3.862;2023-02-28T10:15:23;2.93;;;2.73;;
10550;SDS011;5324;50.684;3.862;2023-02-28T10:17:51;3.17;;;2.57;;
10550;SDS011;5324;50.684;3.862;2023-02-28T10:20:20;2.90;;;2.60;;
10550;SDS011;5324;50.684;3.862;2023-02-28T10:22:57;2.80;;;2.57;;
10550;SDS011;5324;50.684;3.862;2023-02-28T10:25:24;3.57;;;3.00;;
10550;SDS011;5324;50.684;3.862;2023-02-28T10:28:01;4.03;;;2.80;;
10550;SDS011;5324;50.684;3.862;2023-02-28T10:30:31;2.90;;;2.60;;
10550;SDS011;5324;50.684;3.862;2023-02-28T10:32:57;3.33;;;3.03;;
10550;SDS011;5324;50.684;3.862;2023-02-28T10:35:24;2.70;;;2.50;;
10550;SDS011;5324;50.684;3.862;2023-02-28T10:37:52;2.40;;;2.20;;
10550;SDS011;5324;50.684;3.862;2023-02-28T10:42:55;5.40;;;3.00;;
10550;SDS011;5324;50.684;3.862;2023-02-28T10:45:22;2.40;;;2.20;;
10550;SDS011;5324;50.684;3.862;2023-02-28T10:50:34;2.40;;;2.13;;
10550;SDS011;5324;50.684;3.862;2023-02-28T10:53:48;5.03;;;2.57;;
10550;SDS011;5324;50.684;3.862;2023-02-28T10:56:14;2.60;;;2.40;;
10550;SDS011;5324;50.684;3.862;2023-02-28T11:01:15;3.80;;;2.50;;
10550;SDS011;5324;50.684;3.862;2023-02-28T11:03:41;2.60;;;2.40;;
10550;SDS011;5324;50.684;3.862;2023-02-28T11:06:08;2.50;;;2.30;;
10550;SDS011;5324;50.684;3.862;2023-02-28T11:08:51;2.70;;;2.50;;
10550;SDS011;5324;50.684;3.862;2023-02-28T11:11:18;3.03;;;2.50;;
10550;SDS011;5324;50.684;3.862;2023-02-28T11:13:46;3.00;;;2.70;;
10550;SDS011;5324;50.684;3.862;2023-02-28T11:16:13;3.50;;;2.40;;
10550;SDS011;5324;50.684;3.862;2023-02-28T11:18:46;2.93;;;2.57;;
10550;SDS011;5324;50.684;3.862;2023-02-28T11:21:26;2.57;;;2.37;;
10550;SDS011;5324;50.684;3.862;2023-02-28T11:23:56;3.60;;;2.47;;
10550;SDS011;5324;50.684;3.862;2023-02-28T11:26:37;2.70;;;2.50;;
10550;SDS011;5324;50.684;3.862;2023-02-28T11:29:11;3.23;;;2.53;;
10550;SDS011;5324;50.684;3.862;2023-02-28T11:31:37;2.63;;;2.43;;
10550;SDS011;5324;50.684;3.862;2023-02-28T11:34:10;3.03;;;2.70;;
10550;SDS011;5324;50.684;3.862;2023-02-28T11:36:47;2.90;;;2.60;;
10550;SDS011;5324;50.684;3.862;2023-02-28T11:39:13;3.40;;;2.87;;
10550;SDS011;5324;50.684;3.862;2023-02-28T11:46:52;6.57;;;3.07;;
10550;SDS011;5324;50.684;3.862;2023-02-28T11:49:37;6.47;;;2.90;;
10550;SDS011;5324;50.684;3.862;2023-02-28T12:02:25;2.50;;;2.30;;
10550;SDS011;5324;50.684;3.862;2023-02-28T12:07:31;3.47;;;2.60;;
10550;SDS011;5324;50.684;3.862;2023-02-28T12:15:27;3.97;;;2.73;;
10550;SDS011;5324;50.684;3.862;2023-02-28T12:28:02;2.60;;;2.40;;
10550;SDS011;5324;50.684;3.862;2023-02-28T12:30:33;2.97;;;2.77;;
10550;SDS011;5324;50.684;3.862;2023-02-28T12:33:03;2.60;;;2.30;;
10550;SDS011;5324;50.684;3.862;2023-02-28T12:36:13;3.47;;;2.50;;
10550;SDS011;5324;50.684;3.862;2023-02-28T12:38:25;2.40;;;2.20;;
10550;SDS011;5324;50.684;3.862;2023-02-28T12:41:05;3.33;;;2.40;;
10550;SDS011;5324;50.684;3.862;2023-02-28T12:43:36;3.30;;;3.00;;
10550;SDS011;5324;50.684;3.862;2023-02-28T12:46:25;2.87;;;2.63;;
10550;SDS011;5324;50.684;3.862;2023-02-28T12:48:53;3.53;;;2.80;;
10550;SDS011;5324;50.684;3.862;2023-02-28T12:51:21;3.87;;;3.00;;
10550;SDS011;5324;50.684;3.862;2023-02-28T12:54:04;2.87;;;2.63;;
10550;SDS011;5324;50.684;3.862;2023-02-28T12:56:57;3.03;;;2.53;;
10550;SDS011;5324;50.684;3.862;2023-02-28T12:59:22;5.83;;;2.47;;
10550;SDS011;5324;50.684;3.862;2023-02-28T13:01:57;3.17;;;2.80;;
10550;SDS011;5324;50.684;3.862;2023-02-28T13:04:40;3.23;;;2.93;;
10550;SDS011;5324;50.684;3.862;2023-02-28T13:09:56;3.10;;;2.80;;
10550;SDS011;5324;50.684;3.862;2023-02-28T13:12:23;3.40;;;2.83;;
10550;SDS011;5324;50.684;3.862;2023-02-28T13:14:50;3.87;;;2.93;;
10550;SDS011;5324;50.684;3.862;2023-02-28T13:17:20;3.57;;;3.27;;
10550;SDS011;5324;50.684;3.862;2023-02-28T13:19:55;3.37;;;3.03;;
10550;SDS011;5324;50.684;3.862;2023-02-28T13:24:52;3.73;;;3.30;;
10550;SDS011;5324;50.684;3.862;2023-02-28T13:29:48;3.77;;;3.20;;
10550;SDS011;5324;50.684;3.862;2023-02-28T13:32:20;4.77;;;3.10;;
10550;SDS011;5324;50.684;3.862;2023-02-28T13:47:30;3.70;;;3.30;;
10550;SDS011;5324;50.684;3.862;2023-02-28T13:52:48;3.00;;;2.70;;
10550;SDS011;5324;50.684;3.862;2023-02-28T13:57:46;3.30;;;2.80;;
10550;SDS011;5324;50.684;3.862;2023-02-28T14:02:51;3.30;;;2.80;;
10550;SDS011;5324;50.684;3.862;2023-02-28T14:05:22;3.77;;;2.77;;
10550;SDS011;5324;50.684;3.862;2023-02-28T14:07:54;4.43;;;3.00;;
10550;SDS011;5324;50.684;3.862;2023-02-28T14:10:28;4.73;;;2.80;;
10550;SDS011;5324;50.684;3.862;2023-02-28T14:15:41;5.00;;;2.90;;
10550;SDS011;5324;50.684;3.862;2023-02-28T14:18:25;3.63;;;2.70;;
10550;SDS011;5324;50.684;3.862;2023-02-28T14:21:09;3.57;;;3.03;;
10550;SDS011;5324;50.684;3.862;2023-02-28T14:31:13;3.60;;;3.13;;
10550;SDS011;5324;50.684;3.862;2023-02-28T14:36:32;4.67;;;2.60;;
10550;SDS011;5324;50.684;3.862;2023-02-28T14:39:06;3.90;;;2.83;;
10550;SDS011;5324;50.684;3.862;2023-02-28T14:41:34;3.20;;;2.90;;
10550;SDS011;5324;50.684;3.862;2023-02-28T14:44:12;4.13;;;3.07;;
10550;SDS011;5324;50.684;3.862;2023-02-28T14:46:39;3.53;;;3.23;;
10550;SDS011;5324;50.684;3.862;2023-02-28T14:49:06;3.00;;;2.80;;
10550;SDS011;5324;50.684;3.862;2023-02-28T14:51:32;3.37;;;2.70;;
10550;SDS011;5324;50.684;3.862;2023-02-28T14:53:59;2.83;;;2.63;;
10550;SDS011;5324;50.684;3.862;2023-02-28T14:56:30;2.83;;;2.50;;
10550;SDS011;5324;50.684;3.862;2023-02-28T14:58:58;3.33;;;3.07;;
10550;SDS011;5324;50.684;3.862;2023-02-28T15:01:24;3.10;;;2.80;;
10550;SDS011;5324;50.684;3.862;2023-02-28T15:03:58;3.10;;;2.73;;
10550;SDS011;5324;50.684;3.862;2023-02-28T15:06:24;4.93;;;2.87;;
10550;SDS011;5324;50.684;3.862;2023-02-28T15:11:35;2.93;;;2.67;;
10550;SDS011;5324;50.684;3.862;2023-02-28T15:14:01;2.97;;;2.67;;
10550;SDS011;5324;50.684;3.862;2023-02-28T15:16:29;3.40;;;2.80;;
10550;SDS011;5324;50.684;3.862;2023-02-28T15:21:26;2.87;;;2.67;;
10550;SDS011;5324;50.684;3.862;2023-02-28T15:26:21;3.63;;;3.07;;
10550;SDS011;5324;50.684;3.862;2023-02-28T15:28:51;3.47;;;2.80;;
10550;SDS011;5324;50.684;3.862;2023-02-28T15:31:43;4.90;;;3.37;;
10550;SDS011;5324;50.684;3.862;2023-02-28T15:34:06;7.50;;;2.80;;
10550;SDS011;5324;50.684;3.862;2023-02-28T15:36:34;3.60;;;2.70;;
10550;SDS011;5324;50.684;3.862;2023-02-28T15:39:02;2.80;;;2.60;;
10550;SDS011;5324;50.684;3.862;2023-02-28T15:41:29;2.50;;;2.30;;
10550;SDS011;5324;50.684;3.862;2023-02-28T15:47:03;3.50;;;2.43;;
10550;SDS011;5324;50.684;3.862;2023-02-28T15:49:27;4.23;;;3.03;;
10550;SDS011;5324;50.684;3.862;2023-02-28T15:51:55;2.93;;;2.63;;
10550;SDS011;5324;50.684;3.862;2023-02-28T15:54:23;3.37;;;2.93;;
10550;SDS011;5324;50.684;3.862;2023-02-28T15:56:51;3.10;;;2.80;;
10550;SDS011;5324;50.684;3.862;2023-02-28T15:59:18;3.07;;;2.87;;
10550;SDS011;5324;50.684;3.862;2023-02-28T16:01:45;3.17;;;2.87;;
10550;SDS011;5324;50.684;3.862;2023-02-28T16:04:13;2.83;;;2.63;;
10550;SDS011;5324;50.684;3.862;2023-02-28T16:07:02;2.73;;;2.53;;
10550;SDS011;5324;50.684;3.862;2023-02-28T16:09:26;3.17;;;2.87;;
10550;SDS011;5324;50.684;3.862;2023-02-28T16:11:55;3.20;;;2.90;;
10550;SDS011;5324;50.684;3.862;2023-02-28T16:14:23;3.33;;;2.83;;
10550;SDS011;5324;50.684;3.862;2023-02-28T16:16:53;4.03;;;2.70;;
10550;SDS011;5324;50.684;3.862;2023-02-28T16:19:19;3.73;;;2.93;;
10550;SDS011;5324;50.684;3.862;2023-02-28T16:21:45;3.53;;;3.23;;
10550;SDS011;5324;50.684;3.862;2023-02-28T16:24:12;3.17;;;2.83;;
10550;SDS011;5324;50.684;3.862;2023-02-28T16:26:39;3.27;;;3.03;;
10550;SDS011;5324;50.684;3.862;2023-02-28T16:29:05;3.20;;;2.90;;
10550;SDS011;5324;50.684;3.862;2023-02-28T16:31:35;3.50;;;3.20;;
10550;SDS011;5324;50.684;3.862;2023-02-28T16:34:02;3.33;;;3.03;;
10550;SDS011;5324;50.684;3.862;2023-02-28T16:36:29;5.73;;;3.00;;
10550;SDS011;5324;50.684;3.862;2023-02-28T16:38:55;3.17;;;2.90;;
10550;SDS011;5324;50.684;3.862;2023-02-28T16:41:22;2.67;;;2.47;;
10550;SDS011;5324;50.684;3.862;2023-02-28T16:43:50;3.07;;;2.80;;
10550;SDS011;5324;50.684;3.862;2023-02-28T16:46:17;6.63;;;3.30;;
10550;SDS011;5324;50.684;3.862;2023-02-28T16:48:43;3.97;;;2.60;;
10550;SDS011;5324;50.684;3.862;2023-02-28T16:51:15;4.13;;;2.60;;
10550;SDS011;5324;50.684;3.862;2023-02-28T16:53:42;3.57;;;3.27;;
10550;SDS011;5324;50.684;3.862;2023-02-28T16:56:16;3.20;;;2.90;;
10550;SDS011;5324;50.684;3.862;2023-02-28T16:58:42;3.70;;;3.40;;
10550;SDS011;5324;50.684;3.862;2023-02-28T17:01:08;2.80;;;2.60;;
10550;SDS011;5324;50.684;3.862;2023-02-28T17:03:34;2.73;;;2.47;;
10550;SDS011;5324;50.684;3.862;2023-02-28T17:06:02;4.97;;;3.50;;
10550;SDS011;5324;50.684;3.862;2023-02-28T17:08:28;4.83;;;2.97;;
10550;SDS011;5324;50.684;3.862;2023-02-28T17:10:54;3.57;;;2.97;;
10550;SDS011;5324;50.684;3.862;2023-02-28T17:13:20;3.40;;;3.10;;
10550;SDS011;5324;50.684;3.862;2023-02-28T17:15:46;4.07;;;3.60;;
10550;SDS011;5324;50.684;3.862;2023-02-28T17:18:16;3.57;;;3.27;;
10550;SDS011;5324;50.684;3.862;2023-02-28T17:20:46;5.17;;;3.57;;